sensor_id;sensor_type;location;lat;lon;timestamp;temperature;humidity
67777;DHT22;54576;52.020;5.536;2023-04-03T00:00:39;4.20;80.20
67777;DHT22;54576;52.020;5.536;2023-04-03T00:03:05;4.20;80.30
67777;DHT22;54576;52.020;5.536;2023-04-03T00:05:30;4.10;80.40
67777;DHT22;54576;52.020;5.536;2023-04-03T00:07:56;4.10;79.50
67777;DHT22;54576;52.020;5.536;2023-04-03T00:10:21;4.10;80.20
67777;DHT22;54576;52.020;5.536;2023-04-03T00:12:47;4.10;80.80
67777;DHT22;54576;52.020;5.536;2023-04-03T00:15:12;4.00;80.30
67777;DHT22;54576;52.020;5.536;2023-04-03T00:17:38;4.00;79.70
67777;DHT22;54576;52.020;5.536;2023-04-03T00:20:04;4.00;79.60
67777;DHT22;54576;52.020;5.536;2023-04-03T00:22:30;4.00;79.70
67777;DHT22;54576;52.020;5.536;2023-04-03T00:24:55;4.00;81.50
67777;DHT22;54576;52.020;5.536;2023-04-03T00:27:21;3.90;80.10
67777;DHT22;54576;52.020;5.536;2023-04-03T00:29:46;3.90;81.80
67777;DHT22;54576;52.020;5.536;2023-04-03T00:32:12;3.90;80.10
67777;DHT22;54576;52.020;5.536;2023-04-03T00:34:38;3.80;80.20
67777;DHT22;54576;52.020;5.536;2023-04-03T00:37:03;3.80;80.60
67777;DHT22;54576;52.020;5.536;2023-04-03T00:39:29;3.80;81.40
67777;DHT22;54576;52.020;5.536;2023-04-03T00:41:54;3.80;82.00
67777;DHT22;54576;52.020;5.536;2023-04-03T00:47:12;3.80;80.80
67777;DHT22;54576;52.020;5.536;2023-04-03T00:49:38;3.70;82.70
67777;DHT22;54576;52.020;5.536;2023-04-03T00:52:05;3.70;82.50
67777;DHT22;54576;52.020;5.536;2023-04-03T00:54:32;3.70;81.90
67777;DHT22;54576;52.020;5.536;2023-04-03T00:56:58;3.70;81.80
67777;DHT22;54576;52.020;5.536;2023-04-03T00:59:25;3.70;81.10
67777;DHT22;54576;52.020;5.536;2023-04-03T01:01:52;3.60;83.10
67777;DHT22;54576;52.020;5.536;2023-04-03T01:04:36;3.70;83.70
67777;DHT22;54576;52.020;5.536;2023-04-03T01:07:06;3.60;83.90
67777;DHT22;54576;52.020;5.536;2023-04-03T01:09:32;3.60;82.30
67777;DHT22;54576;52.020;5.536;2023-04-03T01:12:18;3.60;81.10
67777;DHT22;54576;52.020;5.536;2023-04-03T01:14:44;3.60;81.00
67777;DHT22;54576;52.020;5.536;2023-04-03T01:18:11;3.50;83.60
67777;DHT22;54576;52.020;5.536;2023-04-03T01:22:59;3.50;83.80
67777;DHT22;54576;52.020;5.536;2023-04-03T01:25:32;3.50;82.00
67777;DHT22;54576;52.020;5.536;2023-04-03T01:27:58;3.50;80.60
67777;DHT22;54576;52.020;5.536;2023-04-03T01:30:25;3.50;83.20
67777;DHT22;54576;52.020;5.536;2023-04-03T01:32:52;3.50;82.50
67777;DHT22;54576;52.020;5.536;2023-04-03T01:35:18;3.40;82.80
67777;DHT22;54576;52.020;5.536;2023-04-03T01:37:43;3.40;83.00
67777;DHT22;54576;52.020;5.536;2023-04-03T01:40:09;3.40;84.30
67777;DHT22;54576;52.020;5.536;2023-04-03T01:42:34;3.40;83.60
67777;DHT22;54576;52.020;5.536;2023-04-03T01:45:00;3.40;83.70
67777;DHT22;54576;52.020;5.536;2023-04-03T01:47:25;3.30;84.20
67777;DHT22;54576;52.020;5.536;2023-04-03T01:49:51;3.30;83.50
67777;DHT22;54576;52.020;5.536;2023-04-03T01:52:16;3.20;83.50
67777;DHT22;54576;52.020;5.536;2023-04-03T01:54:42;3.10;83.10
67777;DHT22;54576;52.020;5.536;2023-04-03T01:57:08;2.90;83.70
67777;DHT22;54576;52.020;5.536;2023-04-03T01:59:33;2.70;84.40
67777;DHT22;54576;52.020;5.536;2023-04-03T02:01:58;2.50;84.10
67777;DHT22;54576;52.020;5.536;2023-04-03T02:04:24;2.40;85.10
67777;DHT22;54576;52.020;5.536;2023-04-03T02:06:50;2.30;86.50
67777;DHT22;54576;52.020;5.536;2023-04-03T02:09:15;2.20;87.30
67777;DHT22;54576;52.020;5.536;2023-04-03T02:11:41;2.10;87.40
67777;DHT22;54576;52.020;5.536;2023-04-03T02:14:06;2.10;89.00
67777;DHT22;54576;52.020;5.536;2023-04-03T02:16:32;2.00;89.00
67777;DHT22;54576;52.020;5.536;2023-04-03T02:18:58;2.00;89.80
67777;DHT22;54576;52.020;5.536;2023-04-03T02:21:23;1.90;89.80
67777;DHT22;54576;52.020;5.536;2023-04-03T02:23:49;1.90;90.00
67777;DHT22;54576;52.020;5.536;2023-04-03T02:26:15;1.90;90.70
67777;DHT22;54576;52.020;5.536;2023-04-03T02:28:41;2.00;90.80
67777;DHT22;54576;52.020;5.536;2023-04-03T02:31:07;2.00;91.40
67777;DHT22;54576;52.020;5.536;2023-04-03T02:33:32;2.20;91.60
67777;DHT22;54576;52.020;5.536;2023-04-03T02:35:58;2.30;91.60
67777;DHT22;54576;52.020;5.536;2023-04-03T02:38:24;2.40;91.70
67777;DHT22;54576;52.020;5.536;2023-04-03T02:40:49;2.40;91.70
67777;DHT22;54576;52.020;5.536;2023-04-03T02:43:16;2.50;90.70
67777;DHT22;54576;52.020;5.536;2023-04-03T02:45:41;2.60;85.70
67777;DHT22;54576;52.020;5.536;2023-04-03T02:48:07;2.70;85.00
67777;DHT22;54576;52.020;5.536;2023-04-03T02:50:32;2.80;87.50
67777;DHT22;54576;52.020;5.536;2023-04-03T02:52:58;2.80;87.20
67777;DHT22;54576;52.020;5.536;2023-04-03T02:55:24;2.80;87.00
67777;DHT22;54576;52.020;5.536;2023-04-03T02:57:49;2.90;85.30
67777;DHT22;54576;52.020;5.536;2023-04-03T03:00:15;2.90;86.90
67777;DHT22;54576;52.020;5.536;2023-04-03T03:02:41;2.80;87.10
67777;DHT22;54576;52.020;5.536;2023-04-03T03:05:06;2.90;85.00
67777;DHT22;54576;52.020;5.536;2023-04-03T03:07:32;2.80;86.50
67777;DHT22;54576;52.020;5.536;2023-04-03T03:09:58;2.80;86.70
67777;DHT22;54576;52.020;5.536;2023-04-03T03:12:23;2.80;85.70
67777;DHT22;54576;52.020;5.536;2023-04-03T03:14:50;2.80;87.20
67777;DHT22;54576;52.020;5.536;2023-04-03T03:17:16;2.80;85.90
67777;DHT22;54576;52.020;5.536;2023-04-03T03:19:41;2.80;88.50
67777;DHT22;54576;52.020;5.536;2023-04-03T03:22:07;2.80;84.20
67777;DHT22;54576;52.020;5.536;2023-04-03T03:24:32;2.80;86.30
67777;DHT22;54576;52.020;5.536;2023-04-03T03:26:58;2.80;84.50
67777;DHT22;54576;52.020;5.536;2023-04-03T03:29:23;2.80;86.00
67777;DHT22;54576;52.020;5.536;2023-04-03T03:31:48;2.80;85.20
67777;DHT22;54576;52.020;5.536;2023-04-03T03:34:14;2.80;85.10
67777;DHT22;54576;52.020;5.536;2023-04-03T03:36:40;2.80;84.60
67777;DHT22;54576;52.020;5.536;2023-04-03T03:39:06;2.80;85.00
67777;DHT22;54576;52.020;5.536;2023-04-03T03:41:32;2.70;86.40
67777;DHT22;54576;52.020;5.536;2023-04-03T03:43:57;2.70;88.00
67777;DHT22;54576;52.020;5.536;2023-04-03T03:46:23;2.70;87.70
67777;DHT22;54576;52.020;5.536;2023-04-03T03:48:48;2.70;86.10
67777;DHT22;54576;52.020;5.536;2023-04-03T03:51:14;2.70;87.70
67777;DHT22;54576;52.020;5.536;2023-04-03T03:53:40;2.70;87.60
67777;DHT22;54576;52.020;5.536;2023-04-03T03:56:06;2.60;91.00
67777;DHT22;54576;52.020;5.536;2023-04-03T03:58:32;2.60;90.30
67777;DHT22;54576;52.020;5.536;2023-04-03T04:01:00;2.60;90.60
67777;DHT22;54576;52.020;5.536;2023-04-03T04:03:25;2.60;90.00
67777;DHT22;54576;52.020;5.536;2023-04-03T04:05:51;2.60;87.00
67777;DHT22;54576;52.020;5.536;2023-04-03T04:08:16;2.60;85.60
67777;DHT22;54576;52.020;5.536;2023-04-03T04:10:42;2.60;85.50
67777;DHT22;54576;52.020;5.536;2023-04-03T04:13:07;2.60;87.50
67777;DHT22;54576;52.020;5.536;2023-04-03T04:15:33;2.50;88.60
67777;DHT22;54576;52.020;5.536;2023-04-03T04:17:59;2.50;89.90
67777;DHT22;54576;52.020;5.536;2023-04-03T04:20:24;2.50;90.80
67777;DHT22;54576;52.020;5.536;2023-04-03T04:22:53;2.50;87.70
67777;DHT22;54576;52.020;5.536;2023-04-03T04:25:18;2.50;89.30
67777;DHT22;54576;52.020;5.536;2023-04-03T04:27:44;2.50;91.10
67777;DHT22;54576;52.020;5.536;2023-04-03T04:30:09;2.50;91.80
67777;DHT22;54576;52.020;5.536;2023-04-03T04:32:35;2.50;91.40
67777;DHT22;54576;52.020;5.536;2023-04-03T04:35:01;2.50;86.00
67777;DHT22;54576;52.020;5.536;2023-04-03T04:37:26;2.50;87.10
67777;DHT22;54576;52.020;5.536;2023-04-03T04:39:52;2.50;87.40
67777;DHT22;54576;52.020;5.536;2023-04-03T04:42:17;2.50;90.90
67777;DHT22;54576;52.020;5.536;2023-04-03T04:44:43;2.50;85.40
67777;DHT22;54576;52.020;5.536;2023-04-03T04:47:09;2.50;88.20
67777;DHT22;54576;52.020;5.536;2023-04-03T04:49:34;2.50;89.80
67777;DHT22;54576;52.020;5.536;2023-04-03T04:52:00;2.40;92.10
67777;DHT22;54576;52.020;5.536;2023-04-03T04:54:25;2.40;95.10
67777;DHT22;54576;52.020;5.536;2023-04-03T04:56:51;2.40;91.40
67777;DHT22;54576;52.020;5.536;2023-04-03T04:59:16;2.40;88.30
67777;DHT22;54576;52.020;5.536;2023-04-03T05:01:42;2.40;92.10
67777;DHT22;54576;52.020;5.536;2023-04-03T05:04:07;2.40;89.00
67777;DHT22;54576;52.020;5.536;2023-04-03T05:06:34;2.30;86.60
67777;DHT22;54576;52.020;5.536;2023-04-03T05:09:00;2.30;84.30
67777;DHT22;54576;52.020;5.536;2023-04-03T05:11:25;2.30;85.40
67777;DHT22;54576;52.020;5.536;2023-04-03T05:13:51;2.40;89.70
67777;DHT22;54576;52.020;5.536;2023-04-03T05:16:16;2.40;92.00
67777;DHT22;54576;52.020;5.536;2023-04-03T05:18:45;2.30;85.40
67777;DHT22;54576;52.020;5.536;2023-04-03T05:21:10;2.30;86.50
67777;DHT22;54576;52.020;5.536;2023-04-03T05:23:36;2.30;86.00
67777;DHT22;54576;52.020;5.536;2023-04-03T05:26:01;2.30;90.10
67777;DHT22;54576;52.020;5.536;2023-04-03T05:28:27;2.30;84.80
67777;DHT22;54576;52.020;5.536;2023-04-03T05:30:53;2.30;85.90
67777;DHT22;54576;52.020;5.536;2023-04-03T05:33:20;2.30;87.70
67777;DHT22;54576;52.020;5.536;2023-04-03T05:35:45;2.40;84.30
67777;DHT22;54576;52.020;5.536;2023-04-03T05:38:11;2.50;83.90
67777;DHT22;54576;52.020;5.536;2023-04-03T05:40:37;2.70;84.60
67777;DHT22;54576;52.020;5.536;2023-04-03T05:43:02;3.20;86.00
67777;DHT22;54576;52.020;5.536;2023-04-03T05:45:28;3.80;87.00
67777;DHT22;54576;52.020;5.536;2023-04-03T05:47:54;4.40;87.00
67777;DHT22;54576;52.020;5.536;2023-04-03T05:50:19;4.80;82.50
67777;DHT22;54576;52.020;5.536;2023-04-03T05:52:45;5.10;82.40
67777;DHT22;54576;52.020;5.536;2023-04-03T05:55:12;5.40;82.60
67777;DHT22;54576;52.020;5.536;2023-04-03T05:57:38;5.80;81.40
67777;DHT22;54576;52.020;5.536;2023-04-03T06:00:04;5.70;79.40
67777;DHT22;54576;52.020;5.536;2023-04-03T06:02:31;5.90;80.90
67777;DHT22;54576;52.020;5.536;2023-04-03T06:04:56;6.30;83.50
67777;DHT22;54576;52.020;5.536;2023-04-03T06:07:23;6.50;77.30
67777;DHT22;54576;52.020;5.536;2023-04-03T06:09:52;6.40;77.70
67777;DHT22;54576;52.020;5.536;2023-04-03T06:12:18;6.70;77.00
67777;DHT22;54576;52.020;5.536;2023-04-03T06:14:43;6.80;77.20
67777;DHT22;54576;52.020;5.536;2023-04-03T06:17:09;7.20;77.10
67777;DHT22;54576;52.020;5.536;2023-04-03T06:19:35;7.30;77.00
67777;DHT22;54576;52.020;5.536;2023-04-03T06:22:01;7.20;73.00
67777;DHT22;54576;52.020;5.536;2023-04-03T06:24:28;7.40;76.30
67777;DHT22;54576;52.020;5.536;2023-04-03T06:26:53;7.30;76.10
67777;DHT22;54576;52.020;5.536;2023-04-03T06:29:19;7.00;77.70
67777;DHT22;54576;52.020;5.536;2023-04-03T06:31:45;7.10;79.30
67777;DHT22;54576;52.020;5.536;2023-04-03T06:34:10;7.10;80.10
67777;DHT22;54576;52.020;5.536;2023-04-03T06:36:38;7.10;79.90
67777;DHT22;54576;52.020;5.536;2023-04-03T06:39:04;7.30;80.00
67777;DHT22;54576;52.020;5.536;2023-04-03T06:41:30;7.20;77.80
67777;DHT22;54576;52.020;5.536;2023-04-03T06:43:55;7.40;79.60
67777;DHT22;54576;52.020;5.536;2023-04-03T06:46:22;7.20;77.60
67777;DHT22;54576;52.020;5.536;2023-04-03T06:48:48;7.10;79.40
67777;DHT22;54576;52.020;5.536;2023-04-03T06:53:42;7.20;78.80
67777;DHT22;54576;52.020;5.536;2023-04-03T06:56:08;7.50;78.20
67777;DHT22;54576;52.020;5.536;2023-04-03T06:58:33;7.40;81.90
67777;DHT22;54576;52.020;5.536;2023-04-03T07:00:59;7.40;93.30
67777;DHT22;54576;52.020;5.536;2023-04-03T07:03:25;7.20;80.50
67777;DHT22;54576;52.020;5.536;2023-04-03T07:08:16;7.50;72.90
67777;DHT22;54576;52.020;5.536;2023-04-03T07:10:42;7.60;74.90
67777;DHT22;54576;52.020;5.536;2023-04-03T07:15:39;6.70;99.90
67777;DHT22;54576;52.020;5.536;2023-04-03T07:18:05;6.40;96.10
67777;DHT22;54576;52.020;5.536;2023-04-03T07:20:31;6.00;91.50
67777;DHT22;54576;52.020;5.536;2023-04-03T07:22:56;5.70;96.90
67777;DHT22;54576;52.020;5.536;2023-04-03T07:25:22;5.40;75.40
67777;DHT22;54576;52.020;5.536;2023-04-03T07:27:47;5.30;82.60
67777;DHT22;54576;52.020;5.536;2023-04-03T07:30:14;5.10;77.30
67777;DHT22;54576;52.020;5.536;2023-04-03T07:32:40;5.10;77.00
67777;DHT22;54576;52.020;5.536;2023-04-03T07:35:05;5.10;76.40
67777;DHT22;54576;52.020;5.536;2023-04-03T07:37:31;5.00;75.00
67777;DHT22;54576;52.020;5.536;2023-04-03T07:39:57;5.00;76.20
67777;DHT22;54576;52.020;5.536;2023-04-03T07:42:24;5.10;76.40
67777;DHT22;54576;52.020;5.536;2023-04-03T07:44:51;5.10;75.40
67777;DHT22;54576;52.020;5.536;2023-04-03T07:47:16;5.10;74.90
67777;DHT22;54576;52.020;5.536;2023-04-03T07:49:43;5.10;74.40
67777;DHT22;54576;52.020;5.536;2023-04-03T07:52:08;5.20;74.30
67777;DHT22;54576;52.020;5.536;2023-04-03T07:54:34;5.30;74.70
67777;DHT22;54576;52.020;5.536;2023-04-03T07:57:00;5.40;74.30
67777;DHT22;54576;52.020;5.536;2023-04-03T07:59:26;5.40;74.40
67777;DHT22;54576;52.020;5.536;2023-04-03T08:01:51;5.50;74.60
67777;DHT22;54576;52.020;5.536;2023-04-03T08:04:17;5.70;93.40
67777;DHT22;54576;52.020;5.536;2023-04-03T08:06:43;5.70;91.10
67777;DHT22;54576;52.020;5.536;2023-04-03T08:09:09;5.70;92.30
67777;DHT22;54576;52.020;5.536;2023-04-03T08:11:34;5.70;71.70
67777;DHT22;54576;52.020;5.536;2023-04-03T08:14:01;5.90;89.20
67777;DHT22;54576;52.020;5.536;2023-04-03T08:16:27;5.80;72.10
67777;DHT22;54576;52.020;5.536;2023-04-03T08:18:53;5.80;71.60
67777;DHT22;54576;52.020;5.536;2023-04-03T08:21:19;5.80;70.60
67777;DHT22;54576;52.020;5.536;2023-04-03T08:23:47;5.80;71.30
67777;DHT22;54576;52.020;5.536;2023-04-03T08:26:14;6.00;93.90
67777;DHT22;54576;52.020;5.536;2023-04-03T08:28:40;6.00;90.80
67777;DHT22;54576;52.020;5.536;2023-04-03T08:31:07;6.10;74.50
67777;DHT22;54576;52.020;5.536;2023-04-03T08:33:33;6.20;86.50
67777;DHT22;54576;52.020;5.536;2023-04-03T08:36:01;6.20;86.80
67777;DHT22;54576;52.020;5.536;2023-04-03T08:38:26;6.20;90.60
67777;DHT22;54576;52.020;5.536;2023-04-03T08:41:02;6.30;87.20
67777;DHT22;54576;52.020;5.536;2023-04-03T08:43:53;6.30;88.70
67777;DHT22;54576;52.020;5.536;2023-04-03T08:46:20;6.30;90.00
67777;DHT22;54576;52.020;5.536;2023-04-03T08:48:48;6.40;82.50
67777;DHT22;54576;52.020;5.536;2023-04-03T08:51:15;6.50;85.20
67777;DHT22;54576;52.020;5.536;2023-04-03T08:53:44;6.50;88.00
67777;DHT22;54576;52.020;5.536;2023-04-03T08:56:11;6.60;90.20
67777;DHT22;54576;52.020;5.536;2023-04-03T09:03:57;6.80;65.30
67777;DHT22;54576;52.020;5.536;2023-04-03T09:06:26;6.80;62.80
67777;DHT22;54576;52.020;5.536;2023-04-03T09:13:59;7.10;65.30
67777;DHT22;54576;52.020;5.536;2023-04-03T09:19:09;7.10;61.20
67777;DHT22;54576;52.020;5.536;2023-04-03T09:21:38;7.00;53.40
67777;DHT22;54576;52.020;5.536;2023-04-03T09:24:07;7.10;58.00
67777;DHT22;54576;52.020;5.536;2023-04-03T09:26:42;7.10;60.70
67777;DHT22;54576;52.020;5.536;2023-04-03T09:29:08;7.30;60.20
67777;DHT22;54576;52.020;5.536;2023-04-03T09:31:40;7.40;58.20
67777;DHT22;54576;52.020;5.536;2023-04-03T09:34:09;7.40;57.70
67777;DHT22;54576;52.020;5.536;2023-04-03T09:39:05;7.40;60.00
67777;DHT22;54576;52.020;5.536;2023-04-03T09:41:31;7.50;56.30
67777;DHT22;54576;52.020;5.536;2023-04-03T09:44:01;7.80;58.00
67777;DHT22;54576;52.020;5.536;2023-04-03T09:46:31;7.80;59.50
67777;DHT22;54576;52.020;5.536;2023-04-03T09:48:58;7.80;54.60
67777;DHT22;54576;52.020;5.536;2023-04-03T09:51:27;7.90;56.20
67777;DHT22;54576;52.020;5.536;2023-04-03T09:53:53;8.10;55.80
67777;DHT22;54576;52.020;5.536;2023-04-03T09:56:26;8.10;50.20
67777;DHT22;54576;52.020;5.536;2023-04-03T09:59:06;8.00;55.40
67777;DHT22;54576;52.020;5.536;2023-04-03T10:01:33;8.00;50.40
67777;DHT22;54576;52.020;5.536;2023-04-03T10:06:31;8.20;54.50
67777;DHT22;54576;52.020;5.536;2023-04-03T10:09:00;8.20;56.90
67777;DHT22;54576;52.020;5.536;2023-04-03T10:11:28;8.20;50.00
67777;DHT22;54576;52.020;5.536;2023-04-03T10:13:58;8.30;55.40
67777;DHT22;54576;52.020;5.536;2023-04-03T10:21:58;8.50;54.10
67777;DHT22;54576;52.020;5.536;2023-04-03T10:27:05;8.50;54.80
67777;DHT22;54576;52.020;5.536;2023-04-03T10:29:46;8.60;55.60
67777;DHT22;54576;52.020;5.536;2023-04-03T10:32:31;8.60;49.30
67777;DHT22;54576;52.020;5.536;2023-04-03T10:35:08;8.60;50.70
67777;DHT22;54576;52.020;5.536;2023-04-03T10:37:49;8.60;50.10
67777;DHT22;54576;52.020;5.536;2023-04-03T10:43:04;8.80;54.60
67777;DHT22;54576;52.020;5.536;2023-04-03T10:45:35;8.80;51.30
67777;DHT22;54576;52.020;5.536;2023-04-03T10:48:13;8.90;51.40
67777;DHT22;54576;52.020;5.536;2023-04-03T10:50:50;9.00;52.60
67777;DHT22;54576;52.020;5.536;2023-04-03T10:56:02;9.00;52.80
67777;DHT22;54576;52.020;5.536;2023-04-03T10:58:49;9.00;55.90
67777;DHT22;54576;52.020;5.536;2023-04-03T11:01:18;9.00;57.40
67777;DHT22;54576;52.020;5.536;2023-04-03T11:03:47;9.10;58.00
67777;DHT22;54576;52.020;5.536;2023-04-03T11:06:13;9.00;53.10
67777;DHT22;54576;52.020;5.536;2023-04-03T11:08:57;8.90;52.20
67777;DHT22;54576;52.020;5.536;2023-04-03T11:11:30;8.90;54.00
67777;DHT22;54576;52.020;5.536;2023-04-03T11:14:00;8.90;54.30
67777;DHT22;54576;52.020;5.536;2023-04-03T11:16:30;8.90;52.10
67777;DHT22;54576;52.020;5.536;2023-04-03T11:21:24;9.00;54.40
67777;DHT22;54576;52.020;5.536;2023-04-03T11:23:51;9.10;53.40
67777;DHT22;54576;52.020;5.536;2023-04-03T11:26:19;9.20;52.80
67777;DHT22;54576;52.020;5.536;2023-04-03T11:28:46;9.30;57.10
67777;DHT22;54576;52.020;5.536;2023-04-03T11:36:33;9.50;52.70
67777;DHT22;54576;52.020;5.536;2023-04-03T11:41:47;9.50;54.00
67777;DHT22;54576;52.020;5.536;2023-04-03T11:44:34;9.50;54.30
67777;DHT22;54576;52.020;5.536;2023-04-03T11:46:59;9.40;52.00
67777;DHT22;54576;52.020;5.536;2023-04-03T11:52:09;9.30;53.60
67777;DHT22;54576;52.020;5.536;2023-04-03T11:57:16;9.40;55.50
67777;DHT22;54576;52.020;5.536;2023-04-03T11:59:46;9.50;54.00
67777;DHT22;54576;52.020;5.536;2023-04-03T12:07:40;9.40;47.80
67777;DHT22;54576;52.020;5.536;2023-04-03T12:10:14;9.50;49.20
67777;DHT22;54576;52.020;5.536;2023-04-03T12:12:40;9.60;54.50
67777;DHT22;54576;52.020;5.536;2023-04-03T12:15:19;9.70;54.00
67777;DHT22;54576;52.020;5.536;2023-04-03T12:17:45;9.70;50.10
67777;DHT22;54576;52.020;5.536;2023-04-03T12:23:27;9.70;55.00
67777;DHT22;54576;52.020;5.536;2023-04-03T12:25:59;9.80;53.80
67777;DHT22;54576;52.020;5.536;2023-04-03T12:28:25;9.70;56.10
67777;DHT22;54576;52.020;5.536;2023-04-03T12:30:51;9.70;53.60
67777;DHT22;54576;52.020;5.536;2023-04-03T12:33:30;9.90;56.40
67777;DHT22;54576;52.020;5.536;2023-04-03T12:35:58;9.90;53.70
67777;DHT22;54576;52.020;5.536;2023-04-03T12:41:17;9.90;50.60
67777;DHT22;54576;52.020;5.536;2023-04-03T12:43:49;9.80;53.70
67777;DHT22;54576;52.020;5.536;2023-04-03T12:46:17;9.70;50.90
67777;DHT22;54576;52.020;5.536;2023-04-03T12:48:54;9.80;53.00
67777;DHT22;54576;52.020;5.536;2023-04-03T12:53:46;9.90;54.50
67777;DHT22;54576;52.020;5.536;2023-04-03T12:56:25;9.90;51.30
67777;DHT22;54576;52.020;5.536;2023-04-03T12:58:52;9.90;54.70
67777;DHT22;54576;52.020;5.536;2023-04-03T13:01:22;9.90;51.40
67777;DHT22;54576;52.020;5.536;2023-04-03T13:03:50;9.80;49.90
67777;DHT22;54576;52.020;5.536;2023-04-03T13:06:24;9.70;49.80
67777;DHT22;54576;52.020;5.536;2023-04-03T13:08:51;9.70;50.30
67777;DHT22;54576;52.020;5.536;2023-04-03T13:11:17;9.90;51.50
67777;DHT22;54576;52.020;5.536;2023-04-03T13:14:05;10.00;51.90
67777;DHT22;54576;52.020;5.536;2023-04-03T13:16:30;10.00;50.80
67777;DHT22;54576;52.020;5.536;2023-04-03T13:18:57;10.10;54.90
67777;DHT22;54576;52.020;5.536;2023-04-03T13:21:24;10.10;51.70
67777;DHT22;54576;52.020;5.536;2023-04-03T13:23:51;10.00;52.40
67777;DHT22;54576;52.020;5.536;2023-04-03T13:26:18;9.90;51.90
67777;DHT22;54576;52.020;5.536;2023-04-03T13:28:45;10.00;50.90
67777;DHT22;54576;52.020;5.536;2023-04-03T13:33:53;10.10;53.80
67777;DHT22;54576;52.020;5.536;2023-04-03T13:36:24;10.00;51.80
67777;DHT22;54576;52.020;5.536;2023-04-03T13:41:26;9.90;53.60
67777;DHT22;54576;52.020;5.536;2023-04-03T13:43:54;10.00;54.60
67777;DHT22;54576;52.020;5.536;2023-04-03T13:48:46;10.00;52.60
67777;DHT22;54576;52.020;5.536;2023-04-03T13:53:42;10.20;53.60
67777;DHT22;54576;52.020;5.536;2023-04-03T13:56:13;10.20;54.20
67777;DHT22;54576;52.020;5.536;2023-04-03T13:58:51;10.10;46.70
67777;DHT22;54576;52.020;5.536;2023-04-03T14:01:18;10.20;52.40
67777;DHT22;54576;52.020;5.536;2023-04-03T14:03:47;10.20;51.50
67777;DHT22;54576;52.020;5.536;2023-04-03T14:06:14;10.30;52.20
67777;DHT22;54576;52.020;5.536;2023-04-03T14:08:40;10.20;52.30
67777;DHT22;54576;52.020;5.536;2023-04-03T14:11:08;10.20;51.20
67777;DHT22;54576;52.020;5.536;2023-04-03T14:13:34;10.20;52.90
67777;DHT22;54576;52.020;5.536;2023-04-03T14:16:00;10.10;52.00
67777;DHT22;54576;52.020;5.536;2023-04-03T14:18:26;10.20;51.30
67777;DHT22;54576;52.020;5.536;2023-04-03T14:20:51;10.20;45.40
67777;DHT22;54576;52.020;5.536;2023-04-03T14:23:17;10.20;49.00
67777;DHT22;54576;52.020;5.536;2023-04-03T14:25:42;10.30;52.20
67777;DHT22;54576;52.020;5.536;2023-04-03T14:28:18;10.30;47.50
67777;DHT22;54576;52.020;5.536;2023-04-03T14:30:43;10.30;54.10
67777;DHT22;54576;52.020;5.536;2023-04-03T14:33:10;10.30;55.40
67777;DHT22;54576;52.020;5.536;2023-04-03T14:35:37;10.40;52.60
67777;DHT22;54576;52.020;5.536;2023-04-03T14:38:05;10.40;51.10
67777;DHT22;54576;52.020;5.536;2023-04-03T14:40:30;10.30;50.60
67777;DHT22;54576;52.020;5.536;2023-04-03T14:42:56;10.20;49.00
67777;DHT22;54576;52.020;5.536;2023-04-03T14:45:23;10.20;48.70
67777;DHT22;54576;52.020;5.536;2023-04-03T14:47:49;10.10;48.90
67777;DHT22;54576;52.020;5.536;2023-04-03T14:50:20;10.10;51.40
67777;DHT22;54576;52.020;5.536;2023-04-03T14:52:46;10.10;51.40
67777;DHT22;54576;52.020;5.536;2023-04-03T14:55:15;10.20;53.40
67777;DHT22;54576;52.020;5.536;2023-04-03T14:57:41;10.20;53.10
67777;DHT22;54576;52.020;5.536;2023-04-03T15:00:16;10.20;52.70
67777;DHT22;54576;52.020;5.536;2023-04-03T15:02:43;10.20;52.90
67777;DHT22;54576;52.020;5.536;2023-04-03T15:05:10;10.20;52.80
67777;DHT22;54576;52.020;5.536;2023-04-03T15:07:37;10.10;53.20
67777;DHT22;54576;52.020;5.536;2023-04-03T15:10:09;10.10;54.00
67777;DHT22;54576;52.020;5.536;2023-04-03T15:12:38;10.10;53.20
67777;DHT22;54576;52.020;5.536;2023-04-03T15:15:04;10.00;52.20
67777;DHT22;54576;52.020;5.536;2023-04-03T15:17:29;10.00;54.20
67777;DHT22;54576;52.020;5.536;2023-04-03T15:19:55;10.00;53.00
67777;DHT22;54576;52.020;5.536;2023-04-03T15:22:21;10.00;51.00
67777;DHT22;54576;52.020;5.536;2023-04-03T15:24:46;10.10;54.30
67777;DHT22;54576;52.020;5.536;2023-04-03T15:27:12;10.10;49.40
67777;DHT22;54576;52.020;5.536;2023-04-03T15:29:38;10.00;45.70
67777;DHT22;54576;52.020;5.536;2023-04-03T15:32:05;10.00;52.90
67777;DHT22;54576;52.020;5.536;2023-04-03T15:34:30;10.00;53.80
67777;DHT22;54576;52.020;5.536;2023-04-03T15:36:56;10.10;52.60
67777;DHT22;54576;52.020;5.536;2023-04-03T15:39:22;10.00;53.90
67777;DHT22;54576;52.020;5.536;2023-04-03T15:41:48;10.00;54.20
67777;DHT22;54576;52.020;5.536;2023-04-03T15:44:14;10.00;52.90
67777;DHT22;54576;52.020;5.536;2023-04-03T15:46:42;10.00;53.40
67777;DHT22;54576;52.020;5.536;2023-04-03T15:49:08;9.90;53.20
67777;DHT22;54576;52.020;5.536;2023-04-03T15:51:34;10.00;55.80
67777;DHT22;54576;52.020;5.536;2023-04-03T15:54:00;10.00;54.40
67777;DHT22;54576;52.020;5.536;2023-04-03T15:56:25;10.00;52.40
67777;DHT22;54576;52.020;5.536;2023-04-03T15:58:51;9.90;53.20
67777;DHT22;54576;52.020;5.536;2023-04-03T16:01:16;9.80;53.00
67777;DHT22;54576;52.020;5.536;2023-04-03T16:03:42;9.80;54.10
67777;DHT22;54576;52.020;5.536;2023-04-03T16:06:13;9.70;52.70
67777;DHT22;54576;52.020;5.536;2023-04-03T16:08:39;9.60;52.00
67777;DHT22;54576;52.020;5.536;2023-04-03T16:11:05;9.70;55.00
67777;DHT22;54576;52.020;5.536;2023-04-03T16:13:31;9.60;54.30
67777;DHT22;54576;52.020;5.536;2023-04-03T16:15:58;9.60;55.20
67777;DHT22;54576;52.020;5.536;2023-04-03T16:18:23;9.70;54.70
67777;DHT22;54576;52.020;5.536;2023-04-03T16:20:49;9.70;56.10
67777;DHT22;54576;52.020;5.536;2023-04-03T16:23:14;9.70;55.70
67777;DHT22;54576;52.020;5.536;2023-04-03T16:25:40;9.70;53.20
67777;DHT22;54576;52.020;5.536;2023-04-03T16:28:10;9.60;52.80
67777;DHT22;54576;52.020;5.536;2023-04-03T16:30:36;9.60;55.40
67777;DHT22;54576;52.020;5.536;2023-04-03T16:33:02;9.60;54.80
67777;DHT22;54576;52.020;5.536;2023-04-03T16:35:27;9.60;49.50
67777;DHT22;54576;52.020;5.536;2023-04-03T16:37:53;9.60;55.50
67777;DHT22;54576;52.020;5.536;2023-04-03T16:40:19;9.60;54.90
67777;DHT22;54576;52.020;5.536;2023-04-03T16:42:44;9.60;53.90
67777;DHT22;54576;52.020;5.536;2023-04-03T16:45:11;9.60;56.70
67777;DHT22;54576;52.020;5.536;2023-04-03T16:47:36;9.60;55.80
67777;DHT22;54576;52.020;5.536;2023-04-03T16:50:02;9.50;55.70
67777;DHT22;54576;52.020;5.536;2023-04-03T16:52:27;9.40;52.80
67777;DHT22;54576;52.020;5.536;2023-04-03T16:54:53;9.40;55.50
67777;DHT22;54576;52.020;5.536;2023-04-03T16:57:21;9.30;52.60
67777;DHT22;54576;52.020;5.536;2023-04-03T16:59:46;9.30;51.20
67777;DHT22;54576;52.020;5.536;2023-04-03T17:02:12;9.30;55.90
67777;DHT22;54576;52.020;5.536;2023-04-03T17:04:37;9.20;50.40
67777;DHT22;54576;52.020;5.536;2023-04-03T17:07:03;9.20;54.80
67777;DHT22;54576;52.020;5.536;2023-04-03T17:09:32;9.10;52.00